createdAt,value
2018-12-14T00:00:10.325Z,42.60
2018-12-14T00:02:38.000Z,35.63
2018-12-14T00:05:05.684Z,33.80
2018-12-14T00:07:33.632Z,34.20
2018-12-14T00:10:01.166Z,36.60
2018-12-14T00:12:28.935Z,33.60
2018-12-14T00:14:56.482Z,31.93
2018-12-14T00:17:24.732Z,37.47
2018-12-14T00:19:52.272Z,31.73
2018-12-14T00:22:20.310Z,31.63
2018-12-14T00:24:47.846Z,31.57
2018-12-14T00:27:16.148Z,38.23
2018-12-14T00:29:43.806Z,30.20
2018-12-14T00:32:11.711Z,33.50
2018-12-14T00:34:39.364Z,34.50
2018-12-14T00:37:07.224Z,35.77
2018-12-14T00:39:35.599Z,38.97
2018-12-14T00:42:03.518Z,35.63
2018-12-14T00:44:31.098Z,26.50
2018-12-14T00:46:59.104Z,31.43
2018-12-14T00:49:26.698Z,30.30
2018-12-14T00:51:55.234Z,28.13
2018-12-14T00:54:22.831Z,35.57
2018-12-14T00:56:50.570Z,34.93
2018-12-14T00:59:18.258Z,34.37
2018-12-14T01:01:45.828Z,37.10
2018-12-14T01:04:13.681Z,41.33
2018-12-14T01:06:41.318Z,32.07
2018-12-14T01:09:09.228Z,37.70
2018-12-14T01:11:36.809Z,35.37
2018-12-14T01:14:04.755Z,35.23
2018-12-14T01:16:32.290Z,35.80
2018-12-14T01:19:00.296Z,35.73
2018-12-14T01:21:27.837Z,34.23
2018-12-14T01:23:55.962Z,35.60
2018-12-14T01:26:24.032Z,34.63
2018-12-14T01:28:51.698Z,31.97
2018-12-14T01:31:19.228Z,31.90
2018-12-14T01:33:48.758Z,33.90
2018-12-14T01:36:16.323Z,35.47
2018-12-14T01:38:44.220Z,36.63
2018-12-14T01:41:11.755Z,40.70
2018-12-14T01:43:39.473Z,37.13
2018-12-14T01:46:07.019Z,42.47
2018-12-14T01:48:34.911Z,40.10
2018-12-14T01:51:02.462Z,38.80
2018-12-14T01:53:30.203Z,42.70
2018-12-14T01:55:58.281Z,35.13
2018-12-14T01:58:25.867Z,41.30
2018-12-14T02:00:53.620Z,44.47
2018-12-14T02:03:21.194Z,35.50
2018-12-14T02:05:49.191Z,38.70
2018-12-14T02:08:16.732Z,40.33
2018-12-14T02:10:44.676Z,46.43
2018-12-14T02:13:12.357Z,44.27
2018-12-14T02:15:40.670Z,44.83
2018-12-14T02:18:08.216Z,41.13
2018-12-14T02:20:36.152Z,53.60
2018-12-14T02:23:03.882Z,46.30
2018-12-14T02:25:31.920Z,47.57
2018-12-14T02:28:00.123Z,47.70
2018-12-14T02:30:46.827Z,43.20
2018-12-14T02:33:14.622Z,48.43
2018-12-14T02:35:42.153Z,48.13
2018-12-14T02:38:09.850Z,47.47
2018-12-14T02:40:37.375Z,48.23
2018-12-14T02:43:05.290Z,49.70
2018-12-14T02:45:32.842Z,47.93
2018-12-14T02:48:00.497Z,47.80
2018-12-14T02:50:28.151Z,51.67
2018-12-14T02:52:56.627Z,43.30
2018-12-14T02:55:24.487Z,48.03
2018-12-14T02:57:52.538Z,46.37
2018-12-14T03:00:20.085Z,51.73
2018-12-14T03:02:47.761Z,47.20
2018-12-14T03:05:15.297Z,50.83
2018-12-14T03:07:42.968Z,43.13
2018-12-14T03:10:10.518Z,48.77
2018-12-14T03:12:38.226Z,50.77
2018-12-14T03:15:06.232Z,49.03
2018-12-14T03:17:34.046Z,47.50
2018-12-14T03:20:01.760Z,50.13
2018-12-14T03:22:29.774Z,48.53
2018-12-14T03:24:57.821Z,55.33
2018-12-14T03:27:25.935Z,53.60
2018-12-14T03:29:53.468Z,48.57
2018-12-14T03:32:21.264Z,52.63
2018-12-14T03:34:48.811Z,54.30
2018-12-14T03:37:16.653Z,50.87
2018-12-14T03:39:44.195Z,51.93
2018-12-14T03:42:12.689Z,49.37
2018-12-14T03:44:40.221Z,51.03
2018-12-14T03:47:08.057Z,57.60
2018-12-14T03:49:35.604Z,52.40
2018-12-14T03:52:03.468Z,47.80
2018-12-14T03:54:31.011Z,52.53
2018-12-14T03:56:59.009Z,56.60
2018-12-14T03:59:26.555Z,54.13
2018-12-14T04:01:54.251Z,48.70
2018-12-14T04:04:22.246Z,57.97
2018-12-14T04:06:49.796Z,50.13
2018-12-14T04:09:17.456Z,61.83
2018-12-14T04:11:45.009Z,62.17
2018-12-14T04:14:13.440Z,67.47
2018-12-14T04:16:41.096Z,68.33
2018-12-14T04:19:08.635Z,52.03
2018-12-14T04:21:36.420Z,55.17
2018-12-14T04:24:04.400Z,49.83
2018-12-14T04:26:32.066Z,59.90
2018-12-14T04:28:59.806Z,54.63
2018-12-14T04:31:27.356Z,60.33
2018-12-14T04:33:55.495Z,58.73
2018-12-14T04:36:23.275Z,57.40
2018-12-14T04:38:50.817Z,57.10
2018-12-14T04:41:18.476Z,55.43
2018-12-14T04:43:46.164Z,64.73
2018-12-14T04:46:13.705Z,57.40
2018-12-14T04:48:41.397Z,57.47
2018-12-14T04:51:09.126Z,54.93
2018-12-14T04:53:37.750Z,56.60
2018-12-14T04:56:05.302Z,62.03
2018-12-14T04:58:33.202Z,62.17
2018-12-14T05:01:00.862Z,58.40
2018-12-14T05:03:28.422Z,57.90
2018-12-14T05:05:56.382Z,61.50
2018-12-14T05:08:23.922Z,60.50
2018-12-14T05:10:51.778Z,67.00
2018-12-14T05:13:19.330Z,58.10
2018-12-14T05:15:47.232Z,62.47
2018-12-14T05:18:14.762Z,60.80
2018-12-14T05:20:42.428Z,61.63
2018-12-14T05:23:09.969Z,73.07
2018-12-14T05:25:38.710Z,53.73
2018-12-14T05:28:06.262Z,62.30
2018-12-14T05:30:34.068Z,62.13
2018-12-14T05:33:01.605Z,60.07
2018-12-14T05:35:29.565Z,58.13
2018-12-14T05:37:57.089Z,65.80
2018-12-14T05:40:24.748Z,64.03
2018-12-14T05:42:52.271Z,70.33
2018-12-14T05:45:20.218Z,63.53
2018-12-14T05:47:47.767Z,55.60
2018-12-14T05:50:15.428Z,62.37
2018-12-14T05:52:42.974Z,53.37
2018-12-14T05:55:10.664Z,63.03
2018-12-14T05:57:38.257Z,58.27
2018-12-14T06:00:08.746Z,60.00
2018-12-14T06:02:36.405Z,64.43
2018-12-14T06:05:04.811Z,67.13
2018-12-14T06:07:32.481Z,65.23
2018-12-14T06:10:00.020Z,68.30
2018-12-14T06:12:27.730Z,63.70
2018-12-14T06:14:55.252Z,63.40
2018-12-14T06:17:23.281Z,63.87
2018-12-14T06:19:50.824Z,64.40
2018-12-14T06:22:18.846Z,60.47
2018-12-14T06:24:46.958Z,60.80
2018-12-14T06:27:15.080Z,59.40
2018-12-14T06:29:42.645Z,64.23
2018-12-14T06:32:11.000Z,70.00
2018-12-14T06:34:38.524Z,69.77
2018-12-14T06:37:06.632Z,75.77
2018-12-14T06:39:34.298Z,69.93
2018-12-14T06:42:02.488Z,66.73
2018-12-14T06:44:30.014Z,68.73
2018-12-14T06:46:57.781Z,64.23
2018-12-14T06:49:25.356Z,67.57
2018-12-14T06:51:53.301Z,64.27
2018-12-14T06:54:20.826Z,69.43
2018-12-14T06:56:48.684Z,64.27
2018-12-14T06:59:16.222Z,63.37
2018-12-14T07:01:44.009Z,67.83
2018-12-14T07:04:11.554Z,59.37
2018-12-14T07:06:39.219Z,68.00
2018-12-14T07:09:07.267Z,77.63
2018-12-14T07:11:34.809Z,62.90
2018-12-14T07:14:03.646Z,62.40
2018-12-14T07:16:31.602Z,64.37
2018-12-14T07:18:59.616Z,64.33
2018-12-14T07:21:27.831Z,68.70
2018-12-14T07:23:55.839Z,75.80
2018-12-14T07:26:23.547Z,71.90
2018-12-14T07:28:52.080Z,89.80
2018-12-14T07:31:19.775Z,65.77
2018-12-14T07:33:47.318Z,90.80
2018-12-14T07:36:15.243Z,83.20
2018-12-14T07:38:48.134Z,71.57
2018-12-14T07:41:12.483Z,69.33
2018-12-14T07:43:40.252Z,63.53
2018-12-14T07:46:07.913Z,85.93
2018-12-14T07:48:35.476Z,75.90
2018-12-14T07:51:03.450Z,69.40
2018-12-14T07:53:30.991Z,63.40
2018-12-14T07:55:58.516Z,64.57
2018-12-14T07:58:26.674Z,57.47
2018-12-14T08:00:54.296Z,65.67
2018-12-14T08:03:22.367Z,75.23
2018-12-14T08:05:50.249Z,63.77
2018-12-14T08:08:17.810Z,70.00
2018-12-14T08:10:46.041Z,67.77
2018-12-14T08:13:13.571Z,56.33
2018-12-14T08:15:41.729Z,67.77
2018-12-14T08:18:09.285Z,68.17
2018-12-14T08:20:36.820Z,73.53
2018-12-14T08:23:05.065Z,64.10
2018-12-14T08:25:34.350Z,69.03
2018-12-14T08:28:02.269Z,70.00
2018-12-14T08:30:29.805Z,85.57
2018-12-14T08:32:57.595Z,75.10
2018-12-14T08:35:25.142Z,64.87
2018-12-14T08:37:52.948Z,67.60
2018-12-14T08:40:20.512Z,72.20
2018-12-14T08:42:48.208Z,73.23
2018-12-14T08:45:15.895Z,69.00
2018-12-14T08:47:43.753Z,73.20
2018-12-14T08:50:11.296Z,65.90
2018-12-14T08:52:38.972Z,63.20
2018-12-14T08:55:06.594Z,56.60
2018-12-14T08:57:34.511Z,71.80
2018-12-14T09:00:02.168Z,66.27
2018-12-14T09:02:30.027Z,58.70
2018-12-14T09:04:57.669Z,63.70
2018-12-14T09:07:26.003Z,71.53
2018-12-14T09:09:53.579Z,71.13
2018-12-14T09:12:21.420Z,70.73
2018-12-14T09:14:49.009Z,68.13
2018-12-14T09:17:16.871Z,56.17
2018-12-14T09:19:44.420Z,65.30
2018-12-14T09:22:12.554Z,58.57
2018-12-14T09:24:40.582Z,60.80
2018-12-14T09:27:08.524Z,55.30
2018-12-14T09:29:36.234Z,52.83
2018-12-14T09:32:04.083Z,58.23
2018-12-14T09:34:31.895Z,63.30
2018-12-14T09:36:59.771Z,58.47
2018-12-14T09:39:27.313Z,53.40
2018-12-14T09:41:55.507Z,64.27
2018-12-14T09:44:23.153Z,59.10
2018-12-14T09:46:51.239Z,50.57
2018-12-14T09:49:18.768Z,56.27
2018-12-14T09:51:46.610Z,53.73
2018-12-14T09:54:14.139Z,61.00
2018-12-14T09:56:42.092Z,51.00
2018-12-14T09:59:09.647Z,66.27
2018-12-14T10:01:37.598Z,59.70
2018-12-14T10:04:05.180Z,63.60
2018-12-14T10:06:32.964Z,53.90
2018-12-14T10:09:00.499Z,55.50
2018-12-14T10:11:28.439Z,73.23
2018-12-14T10:14:00.853Z,61.77
2018-12-14T10:16:26.444Z,66.83
2018-12-14T10:18:54.377Z,47.27
2018-12-14T10:21:22.206Z,56.77
2018-12-14T10:23:50.095Z,57.23
2018-12-14T10:26:18.325Z,56.63
2018-12-14T10:28:46.711Z,63.07
2018-12-14T10:31:17.332Z,56.77
2018-12-14T10:33:44.940Z,55.33
2018-12-14T10:36:12.737Z,59.53
2018-12-14T10:38:40.713Z,55.53
2018-12-14T10:41:08.374Z,56.13
2018-12-14T10:43:35.915Z,50.97
2018-12-14T10:46:04.139Z,56.30
2018-12-14T10:48:31.674Z,56.57
2018-12-14T10:50:59.614Z,54.30
2018-12-14T10:53:27.687Z,52.63
2018-12-14T10:55:55.586Z,45.50
2018-12-14T10:58:23.123Z,44.90
2018-12-14T11:00:56.360Z,49.03
2018-12-14T11:03:24.233Z,55.20
2018-12-14T11:05:53.386Z,52.13
2018-12-14T11:08:20.927Z,50.53
2018-12-14T11:10:49.148Z,45.70
2018-12-14T11:13:16.714Z,46.70
2018-12-14T11:15:44.638Z,45.67
2018-12-14T11:18:12.172Z,48.77
2018-12-14T11:20:39.995Z,39.30
2018-12-14T11:23:07.546Z,50.40
2018-12-14T11:25:35.934Z,48.60
2018-12-14T11:28:03.475Z,49.67
2018-12-14T11:30:31.271Z,43.20
2018-12-14T11:32:58.805Z,48.23
2018-12-14T11:35:26.790Z,48.70
2018-12-14T11:37:55.065Z,40.60
2018-12-14T11:40:22.607Z,47.53
2018-12-14T11:42:50.654Z,46.20
2018-12-14T11:45:18.345Z,43.37
2018-12-14T11:47:46.270Z,46.20
2018-12-14T11:50:13.942Z,46.70
2018-12-14T11:52:41.810Z,48.80
2018-12-14T11:55:09.572Z,45.13
2018-12-14T11:57:37.386Z,51.10
2018-12-14T12:00:07.796Z,55.40
2018-12-14T12:02:35.733Z,50.93
2018-12-14T12:05:04.476Z,54.33
2018-12-14T12:07:32.334Z,48.27
2018-12-14T12:09:59.903Z,56.23
2018-12-14T12:12:28.075Z,59.87
2018-12-14T12:14:55.601Z,56.20
2018-12-14T12:17:23.547Z,55.00
2018-12-14T12:19:51.832Z,61.63
2018-12-14T12:22:19.541Z,57.60
2018-12-14T12:24:47.356Z,60.63
2018-12-14T12:27:15.082Z,53.97
2018-12-14T12:29:42.657Z,68.47
2018-12-14T12:32:10.615Z,58.10
2018-12-14T12:34:38.147Z,61.10
2018-12-14T12:37:05.922Z,51.00
2018-12-14T12:39:33.476Z,47.33
2018-12-14T12:42:01.238Z,50.83
2018-12-14T12:44:33.467Z,64.20
2018-12-14T12:46:58.769Z,55.73
2018-12-14T12:49:26.298Z,55.77
2018-12-14T12:51:54.747Z,51.07
2018-12-14T12:54:22.304Z,60.70
2018-12-14T12:56:50.068Z,68.33
2018-12-14T12:59:17.609Z,67.60
2018-12-14T13:01:45.599Z,55.87
2018-12-14T13:04:13.164Z,62.63
2018-12-14T13:06:41.339Z,69.73
2018-12-14T13:09:08.884Z,67.33
2018-12-14T13:11:36.942Z,59.20
2018-12-14T13:14:04.487Z,52.20
2018-12-14T13:16:32.347Z,56.93
2018-12-14T13:18:59.890Z,59.97
2018-12-14T13:21:27.432Z,68.13
2018-12-14T13:23:55.397Z,55.90
2018-12-14T13:26:23.205Z,57.97
2018-12-14T13:28:51.842Z,62.37
2018-12-14T13:31:19.645Z,56.90
2018-12-14T13:33:47.450Z,51.70
2018-12-14T13:36:14.991Z,56.27
2018-12-14T13:38:42.779Z,66.10
2018-12-14T13:41:10.423Z,66.23
2018-12-14T13:43:38.592Z,68.83
2018-12-14T13:46:06.133Z,60.60
2018-12-14T13:48:34.237Z,59.80
2018-12-14T13:51:01.795Z,61.07
2018-12-14T13:53:29.734Z,56.97
2018-12-14T13:55:57.369Z,58.07
2018-12-14T13:58:25.094Z,58.83
2018-12-14T14:00:52.625Z,57.80
2018-12-14T14:03:20.793Z,56.60
2018-12-14T14:05:48.330Z,64.70
2018-12-14T14:08:16.072Z,55.13
2018-12-14T14:10:43.608Z,55.13
2018-12-14T14:13:11.290Z,60.47
2018-12-14T14:15:38.845Z,58.00
2018-12-14T14:18:07.197Z,57.90
2018-12-14T14:20:34.752Z,50.90
2018-12-14T14:23:03.160Z,57.00
2018-12-14T14:25:31.367Z,60.03
2018-12-14T14:27:59.296Z,64.63
2018-12-14T14:30:27.009Z,68.73
2018-12-14T14:32:55.032Z,59.73
2018-12-14T14:35:23.261Z,58.70
2018-12-14T14:37:57.297Z,64.87
2018-12-14T14:40:20.658Z,60.77
2018-12-14T14:42:48.737Z,69.60
2018-12-14T14:45:16.301Z,68.90
2018-12-14T14:47:44.075Z,69.87
2018-12-14T14:50:11.710Z,73.50
2018-12-14T14:52:39.970Z,71.93
2018-12-14T14:55:07.624Z,74.67
2018-12-14T14:57:36.085Z,79.53
2018-12-14T15:00:05.108Z,77.30
2018-12-14T15:02:33.422Z,82.23
2018-12-14T15:05:01.143Z,75.10
2018-12-14T15:07:29.046Z,70.63
2018-12-14T15:09:56.587Z,93.63
2018-12-14T15:12:24.684Z,72.00
2018-12-14T15:14:52.223Z,77.03
2018-12-14T15:17:20.271Z,69.87
2018-12-14T15:19:47.853Z,79.57
2018-12-14T15:22:15.659Z,66.87
2018-12-14T15:24:43.589Z,69.30
2018-12-14T15:27:11.277Z,69.33
2018-12-14T15:29:38.834Z,70.63
2018-12-14T15:32:06.533Z,69.43
2018-12-14T15:34:34.064Z,73.23
2018-12-14T15:37:02.012Z,67.63
2018-12-14T15:39:29.563Z,70.47
2018-12-14T15:41:57.104Z,71.17
2018-12-14T15:44:25.595Z,72.30
2018-12-14T15:46:53.509Z,79.47
2018-12-14T15:49:21.473Z,74.37
2018-12-14T15:51:49.022Z,72.30
2018-12-14T15:54:16.908Z,73.87
2018-12-14T15:56:44.453Z,78.73
2018-12-14T15:59:12.406Z,75.93
2018-12-14T16:01:40.468Z,69.10
2018-12-14T16:04:08.021Z,70.90
2018-12-14T16:06:35.552Z,67.73
2018-12-14T16:09:04.883Z,76.97
2018-12-14T16:11:32.426Z,81.23
2018-12-14T16:14:00.639Z,75.83
2018-12-14T16:16:28.253Z,58.27
2018-12-14T16:18:55.984Z,70.33
2018-12-14T16:21:23.641Z,75.53
2018-12-14T16:23:51.911Z,79.60
2018-12-14T16:26:19.507Z,70.80
2018-12-14T16:28:47.412Z,72.60
2018-12-14T16:31:14.975Z,76.07
2018-12-14T16:33:42.733Z,67.73
2018-12-14T16:36:10.261Z,62.53
2018-12-14T16:38:38.073Z,79.67
2018-12-14T16:41:05.610Z,71.07
2018-12-14T16:43:33.409Z,66.60
2018-12-14T16:46:00.943Z,71.90
2018-12-14T16:48:29.343Z,62.53
2018-12-14T16:50:56.980Z,76.33
2018-12-14T16:53:25.238Z,68.40
2018-12-14T16:55:52.789Z,60.93
2018-12-14T16:58:20.754Z,71.13
2018-12-14T17:00:49.419Z,72.43
2018-12-14T17:03:16.944Z,69.73
2018-12-14T17:05:44.989Z,75.27
2018-12-14T17:08:12.672Z,81.27
2018-12-14T17:10:40.288Z,62.30
2018-12-14T17:13:07.963Z,78.43
2018-12-14T17:15:35.502Z,73.83
2018-12-14T17:18:04.735Z,80.13
2018-12-14T17:20:32.492Z,73.03
2018-12-14T17:23:01.095Z,78.17
2018-12-14T17:25:29.082Z,81.43
2018-12-14T17:27:57.040Z,69.53
2018-12-14T17:30:24.588Z,68.17
2018-12-14T17:32:52.570Z,67.00
2018-12-14T17:35:20.114Z,74.40
2018-12-14T17:37:47.915Z,68.00
2018-12-14T17:40:15.453Z,65.73
2018-12-14T17:42:43.489Z,76.13
2018-12-14T17:45:11.053Z,72.60
2018-12-14T17:47:38.951Z,68.73
2018-12-14T17:50:07.248Z,62.23
2018-12-14T17:52:35.085Z,66.40
2018-12-14T17:55:02.608Z,65.07
2018-12-14T17:57:30.405Z,75.40
2018-12-14T17:59:57.959Z,72.37
2018-12-14T18:02:26.104Z,68.70
2018-12-14T18:04:53.664Z,64.23
2018-12-14T18:07:21.838Z,65.47
2018-12-14T18:09:49.382Z,62.03
2018-12-14T18:12:16.941Z,71.47
2018-12-14T18:14:45.012Z,70.77
2018-12-14T18:17:12.577Z,73.50
2018-12-14T18:19:40.792Z,69.73
2018-12-14T18:22:08.372Z,69.27
2018-12-14T18:24:36.800Z,66.43
2018-12-14T18:27:04.435Z,60.07
2018-12-14T18:29:32.263Z,64.43
2018-12-14T18:31:59.894Z,60.43
2018-12-14T18:34:27.789Z,55.07
2018-12-14T18:36:55.328Z,51.80
2018-12-14T18:39:23.691Z,59.70
2018-12-14T18:41:51.240Z,53.20
2018-12-14T18:44:18.892Z,61.07
2018-12-14T18:46:46.428Z,63.30
2018-12-14T18:49:14.143Z,49.10
2018-12-14T18:51:41.701Z,48.20
2018-12-14T18:54:09.375Z,51.63
2018-12-14T18:56:36.954Z,61.07
2018-12-14T18:59:05.214Z,52.17
2018-12-14T19:01:32.743Z,62.83
2018-12-14T19:04:00.440Z,54.30
2018-12-14T19:06:27.997Z,51.80
2018-12-14T19:08:55.932Z,54.93
2018-12-14T19:11:23.462Z,52.17
2018-12-14T19:13:51.114Z,44.67
2018-12-14T19:16:18.738Z,55.80
2018-12-14T19:18:46.387Z,51.33
2018-12-14T19:21:13.925Z,42.33
2018-12-14T19:23:42.695Z,48.07
2018-12-14T19:26:10.255Z,52.20
2018-12-14T19:28:37.992Z,54.83
2018-12-14T19:31:05.547Z,55.53
2018-12-14T19:33:33.355Z,47.53
2018-12-14T19:36:01.150Z,54.20
2018-12-14T19:38:29.083Z,52.73
2018-12-14T19:40:56.627Z,56.80
2018-12-14T19:43:24.474Z,50.93
2018-12-14T19:45:52.411Z,48.60
2018-12-14T19:48:20.067Z,54.70
2018-12-14T19:50:47.833Z,42.90
2018-12-14T19:53:15.371Z,50.27
2018-12-14T19:55:44.464Z,53.40
2018-12-14T19:58:12.166Z,54.57
2018-12-14T20:00:40.036Z,54.93
2018-12-14T20:03:07.610Z,47.37
2018-12-14T20:05:36.176Z,50.50
2018-12-14T20:08:03.916Z,48.80
2018-12-14T20:10:31.783Z,55.90
2018-12-14T20:12:59.351Z,48.87
2018-12-14T20:15:27.254Z,49.23
2018-12-14T20:17:54.782Z,45.30
2018-12-14T20:20:22.569Z,51.27
2018-12-14T20:22:50.111Z,45.10
2018-12-14T20:25:18.522Z,47.37
2018-12-14T20:27:46.061Z,57.60
2018-12-14T20:30:14.048Z,60.10
2018-12-14T20:32:41.605Z,47.77
2018-12-14T20:35:09.770Z,47.70
2018-12-14T20:37:37.588Z,58.67
2018-12-14T20:40:06.540Z,53.47
2018-12-14T20:42:34.081Z,52.17
2018-12-14T20:45:02.085Z,54.50
2018-12-14T20:47:29.632Z,58.33
2018-12-14T20:49:57.176Z,58.03
2018-12-14T20:52:25.051Z,62.23
2018-12-14T20:54:52.593Z,56.87
2018-12-14T20:57:20.583Z,52.50
2018-12-14T20:59:48.131Z,56.40
2018-12-14T21:02:16.108Z,66.80
2018-12-14T21:04:43.635Z,63.73
2018-12-14T21:07:11.585Z,46.27
2018-12-14T21:09:39.123Z,48.20
2018-12-14T21:12:07.060Z,56.07
2018-12-14T21:14:35.001Z,46.60
2018-12-14T21:17:02.996Z,51.17
2018-12-14T21:19:30.544Z,49.40
2018-12-14T21:21:58.553Z,52.77
2018-12-14T21:24:26.569Z,40.30
2018-12-14T21:26:54.576Z,53.83
2018-12-14T21:29:22.125Z,46.97
2018-12-14T21:31:49.999Z,52.20
2018-12-14T21:34:17.612Z,54.83
2018-12-14T21:36:45.549Z,36.37
2018-12-14T21:39:13.701Z,46.00
2018-12-14T21:41:41.670Z,52.13
2018-12-14T21:44:09.213Z,50.97
2018-12-14T21:46:37.185Z,47.50
2018-12-14T21:49:04.709Z,50.07
2018-12-14T21:51:32.511Z,42.17
2018-12-14T21:54:00.061Z,39.50
2018-12-14T21:56:27.857Z,38.57
2018-12-14T21:58:55.408Z,42.63
2018-12-14T22:01:23.624Z,43.17
2018-12-14T22:03:51.185Z,40.37
2018-12-14T22:06:19.095Z,39.70
2018-12-14T22:08:46.675Z,45.00
2018-12-14T22:11:14.553Z,40.20
2018-12-14T22:13:42.250Z,40.43
2018-12-14T22:16:09.985Z,41.67
2018-12-14T22:18:37.525Z,37.10
2018-12-14T22:21:05.479Z,32.40
2018-12-14T22:23:33.023Z,35.87
2018-12-14T22:26:01.393Z,40.60
2018-12-14T22:28:28.963Z,38.27
2018-12-14T22:30:56.688Z,36.23
2018-12-14T22:33:24.479Z,34.23
2018-12-14T22:35:52.046Z,36.70
2018-12-14T22:38:20.149Z,37.27
2018-12-14T22:40:47.685Z,36.70
2018-12-14T22:43:15.571Z,34.80
2018-12-14T22:45:43.099Z,43.10
2018-12-14T22:48:11.106Z,36.83
2018-12-14T22:50:38.665Z,41.77
2018-12-14T22:53:06.623Z,47.13
2018-12-14T22:55:34.167Z,41.03
2018-12-14T22:58:02.311Z,41.63
2018-12-14T23:00:30.189Z,40.40
2018-12-14T23:02:58.453Z,38.50
2018-12-14T23:05:26.007Z,42.40
2018-12-14T23:07:54.704Z,44.63
2018-12-14T23:10:22.233Z,40.23
2018-12-14T23:12:50.187Z,47.07
2018-12-14T23:15:17.737Z,40.23
2018-12-14T23:17:45.887Z,43.70
2018-12-14T23:20:13.419Z,48.03
2018-12-14T23:22:41.284Z,44.30
2018-12-14T23:25:09.463Z,41.63
2018-12-14T23:27:37.381Z,39.47
2018-12-14T23:30:08.525Z,42.77
2018-12-14T23:32:36.297Z,42.10
2018-12-14T23:35:04.003Z,37.63
2018-12-14T23:37:31.915Z,45.37
2018-12-14T23:39:59.444Z,41.67
2018-12-14T23:42:27.352Z,44.40
2018-12-14T23:44:54.960Z,46.80
2018-12-14T23:47:22.831Z,45.33
2018-12-14T23:49:50.387Z,41.83
2018-12-14T23:52:18.249Z,47.30
2018-12-14T23:54:45.793Z,50.43
2018-12-14T23:57:13.627Z,46.40
2018-12-14T23:59:41.183Z,44.03
